Pagrindinis puslapis
METAR-TAF:

METAR-TAF

Oro uostai :

Hasvik, Norvegija

platuma: 70-29N, ilguma: 022-09E, Aukštis: 10 m

Dabartinis oras

Ataskaita buvo paskelbta 2 valandos ir 2 minutes, ne 08:50 UTC
Vėjas 6 kt iš Pietų
Temperatūra -3°C
Drėgmė 68%
Slėgis 980 hPa
Matomumas 10 km arba daugiau
Mažai debesys ne aukštis 2800 ft

METAR: ENHK 090850Z 19006KT 9999 FEW028 M03/M08 Q0980

Laikas: 11:52 (10:52 UTC)


TAF: trūkstamas

Orai ataskaitas ir orų prognozės (METAR, TAF).

turimą stotys yra geltonos ir raudonos taškus žemėlapyje.

Perkelti pele per norėdami pamatyti stoties vardą.

Tada spustelėkite, norėdami matyti oro stebėjimo ir prognozės.

Norėdami pakeisti žemėlapį: spustelėkite ant žalios mygtukų su juodo kryžiaus žemyn,; žalią mygtuką su brūkšneliu, jei norite nutolinti; arba žalių rodyklių gretimoms žemėlapius.


METAR-TAF: